Time,TemperatureF,DewpointF,PressureIn,WindDirection,WindDirectionDegrees,WindSpeedMPH,WindSpeedGustMPH,Humidity,HourlyPrecipIn,Conditions,Clouds,dailyrainin,SolarRadiationWatts/m^2,SoftwareType,DateUTC
2013-04-07 00:02:00,38.0,16.0,-100.00,WSW,244,11.0,21.0,41,0.00,,,0.00,0.000000,,2013-04-07 06:02:00,
2013-04-07 00:12:00,38.0,16.0,-100.00,WSW,244,11.0,21.0,41,0.00,,,0.00,0.000000,,2013-04-07 06:12:00,
2013-04-07 00:22:00,38.0,16.0,-100.00,WSW,244,11.0,21.0,41,0.00,,,0.00,0.000000,,2013-04-07 06:22:00,
2013-04-07 00:32:00,38.0,16.0,-100.00,WSW,244,11.0,21.0,41,0.00,,,0.00,0.000000,,2013-04-07 06:32:00,
2013-04-07 00:52:00,36.0,22.0,-100.00,SSW,204,16.0,32.0,56,0.00,,,0.00,0.000000,,2013-04-07 06:52:00,
2013-04-07 01:02:00,36.0,22.0,-100.00,SSW,204,16.0,32.0,56,0.00,,,0.00,0.000000,,2013-04-07 07:02:00,
2013-04-07 01:12:00,36.0,22.0,-100.00,SSW,204,16.0,32.0,56,0.00,,,0.00,0.000000,,2013-04-07 07:12:00,
2013-04-07 01:22:00,36.0,22.0,-100.00,SSW,204,16.0,32.0,56,0.00,,,0.00,0.000000,,2013-04-07 07:22:00,
2013-04-07 01:32:00,36.0,22.0,-100.00,SSW,204,16.0,32.0,56,0.00,,,0.00,0.000000,,2013-04-07 07:32:00,
2013-04-07 01:52:00,35.0,22.0,-100.00,West,265,9.0,33.0,58,0.00,,,0.00,0.000000,,2013-04-07 07:52:00,
2013-04-07 02:02:00,35.0,22.0,-100.00,West,265,9.0,33.0,58,0.00,,,0.00,0.000000,,2013-04-07 08:02:00,
2013-04-07 02:12:00,35.0,22.0,-100.00,West,265,9.0,33.0,58,0.00,,,0.00,0.000000,,2013-04-07 08:12:00,
2013-04-07 02:22:00,35.0,22.0,-100.00,West,265,9.0,33.0,58,0.00,,,0.00,0.000000,,2013-04-07 08:22:00,
2013-04-07 02:32:00,35.0,22.0,-100.00,West,265,9.0,33.0,58,0.00,,,0.00,0.000000,,2013-04-07 08:32:00,
2013-04-07 02:53:00,35.0,21.0,-100.00,West,272,11.0,26.0,57,0.00,,,0.00,0.000000,,2013-04-07 08:53:00,
2013-04-07 03:02:00,35.0,21.0,-100.00,West,272,11.0,26.0,57,0.00,,,0.00,0.000000,,2013-04-07 09:02:00,
2013-04-07 03:12:00,35.0,21.0,-100.00,West,272,11.0,26.0,57,0.00,,,0.00,0.000000,,2013-04-07 09:12:00,
2013-04-07 03:22:00,35.0,21.0,-100.00,West,272,11.0,26.0,57,0.00,,,0.00,0.000000,,2013-04-07 09:22:00,
2013-04-07 03:33:00,35.0,21.0,-100.00,West,272,11.0,26.0,57,0.00,,,0.00,0.000000,,2013-04-07 09:33:00,
2013-04-07 03:54:00,36.0,18.0,-100.00,WSW,246,24.0,38.0,47,0.00,,,0.00,0.000000,,2013-04-07 09:54:00,
2013-04-07 04:04:00,36.0,18.0,-100.00,WSW,246,24.0,38.0,47,0.00,,,0.00,0.000000,,2013-04-07 10:04:00,
2013-04-07 04:13:00,36.0,18.0,-100.00,WSW,246,24.0,38.0,47,0.00,,,0.00,0.000000,,2013-04-07 10:13:00,
2013-04-07 04:23:00,36.0,18.0,-100.00,WSW,246,24.0,38.0,47,0.00,,,0.00,0.000000,,2013-04-07 10:23:00,
2013-04-07 04:33:00,36.0,18.0,-100.00,WSW,246,24.0,38.0,47,0.00,,,0.00,0.000000,,2013-04-07 10:33:00,
2013-04-07 04:54:00,35.0,16.0,-100.00,SW,235,22.0,41.0,45,0.00,,,0.00,0.000000,,2013-04-07 10:54:00,
2013-04-07 05:03:00,35.0,16.0,-100.00,SW,235,22.0,41.0,45,0.00,,,0.00,0.000000,,2013-04-07 11:03:00,
2013-04-07 05:12:00,35.0,16.0,-100.00,SW,235,22.0,41.0,45,0.00,,,0.00,0.000000,,2013-04-07 11:12:00,
2013-04-07 05:22:00,35.0,16.0,-100.00,SW,235,22.0,41.0,45,0.00,,,0.00,0.000000,,2013-04-07 11:22:00,
2013-04-07 05:32:00,35.0,16.0,-100.00,SW,235,22.0,41.0,45,0.00,,,0.00,0.000000,,2013-04-07 11:32:00,
2013-04-07 05:34:00,34.0,15.0,-100.00,WSW,249,16.0,31.0,45,0.00,,,0.00,0.000000,,2013-04-07 11:34:00,
2013-04-07 05:53:00,34.0,15.0,-100.00,WSW,249,16.0,31.0,45,0.00,,,0.00,0.000000,,2013-04-07 11:53:00,
2013-04-07 06:02:00,34.0,15.0,-100.00,WSW,249,16.0,31.0,45,0.00,,,0.00,0.000000,,2013-04-07 12:02:00,
2013-04-07 06:12:00,34.0,15.0,-100.00,WSW,249,16.0,31.0,45,0.00,,,0.00,0.000000,,2013-04-07 12:12:00,
2013-04-07 06:23:00,34.0,15.0,-100.00,WSW,249,16.0,31.0,45,0.00,,,0.00,0.000000,,2013-04-07 12:23:00,
2013-04-07 06:54:00,33.0,18.0,-100.00,WSW,238,14.0,30.0,53,0.00,,,0.00,1.000000,,2013-04-07 12:54:00,
2013-04-07 07:13:00,33.0,18.0,-100.00,WSW,238,14.0,30.0,53,0.00,,,0.00,1.000000,,2013-04-07 13:13:00,
2013-04-07 07:22:00,33.0,18.0,-100.00,WSW,238,14.0,30.0,53,0.00,,,0.00,1.000000,,2013-04-07 13:22:00,
2013-04-07 07:32:00,33.0,18.0,-100.00,WSW,238,14.0,30.0,53,0.00,,,0.00,1.000000,,2013-04-07 13:32:00,
2013-04-07 07:53:00,34.0,17.0,-100.00,SW,236,20.0,34.0,50,0.00,,,0.00,15.000000,,2013-04-07 13:53:00,
2013-04-07 08:02:00,34.0,17.0,-100.00,SW,236,20.0,34.0,50,0.00,,,0.00,15.000000,,2013-04-07 14:02:00,
2013-04-07 08:12:00,34.0,17.0,-100.00,SW,236,20.0,34.0,50,0.00,,,0.00,15.000000,,2013-04-07 14:12:00,
2013-04-07 08:23:00,34.0,17.0,-100.00,SW,236,20.0,34.0,50,0.00,,,0.00,15.000000,,2013-04-07 14:23:00,
2013-04-07 08:32:00,34.0,17.0,-100.00,SW,236,20.0,34.0,50,0.00,,,0.00,15.000000,,2013-04-07 14:32:00,
2013-04-07 08:34:00,36.0,17.0,-100.00,SW,233,21.0,37.0,45,0.00,,,0.00,201.000000,,2013-04-07 14:34:00,
2013-04-07 08:54:00,36.0,17.0,-100.00,SW,233,21.0,37.0,45,0.00,,,0.00,201.000000,,2013-04-07 14:54:00,
2013-04-07 09:03:00,36.0,17.0,-100.00,SW,233,21.0,37.0,45,0.00,,,0.00,201.000000,,2013-04-07 15:03:00,
2013-04-07 09:12:00,36.0,17.0,-100.00,SW,233,21.0,37.0,45,0.00,,,0.00,201.000000,,2013-04-07 15:12:00,
2013-04-07 09:22:00,36.0,17.0,-100.00,SW,233,21.0,37.0,45,0.00,,,0.00,201.000000,,2013-04-07 15:22:00,
2013-04-07 09:55:00,38.0,16.0,-100.00,WSW,245,20.0,41.0,40,0.00,,,0.00,465.000000,,2013-04-07 15:55:00,
2013-04-07 10:04:00,38.0,16.0,-100.00,WSW,245,20.0,41.0,40,0.00,,,0.00,465.000000,,2013-04-07 16:04:00,
2013-04-07 10:13:00,38.0,16.0,-100.00,WSW,245,20.0,41.0,40,0.00,,,0.00,465.000000,,2013-04-07 16:13:00,
2013-04-07 10:24:00,38.0,16.0,-100.00,WSW,245,20.0,41.0,40,0.00,,,0.00,465.000000,,2013-04-07 16:24:00,
2013-04-07 10:33:00,38.0,16.0,-100.00,WSW,245,20.0,41.0,40,0.00,,,0.00,465.000000,,2013-04-07 16:33:00,
2013-04-07 10:54:00,40.0,16.0,-100.00,WSW,241,22.0,41.0,37,0.00,,,0.00,664.000000,,2013-04-07 16:54:00,
2013-04-07 11:04:00,40.0,16.0,-100.00,WSW,241,22.0,41.0,37,0.00,,,0.00,664.000000,,2013-04-07 17:04:00,
2013-04-07 11:13:00,40.0,16.0,-100.00,WSW,241,22.0,41.0,37,0.00,,,0.00,664.000000,,2013-04-07 17:13:00,
2013-04-07 11:23:00,40.0,16.0,-100.00,WSW,241,22.0,41.0,37,0.00,,,0.00,664.000000,,2013-04-07 17:23:00,
2013-04-07 11:33:00,40.0,16.0,-100.00,WSW,241,22.0,41.0,37,0.00,,,0.00,664.000000,,2013-04-07 17:33:00,
2013-04-07 11:54:00,42.0,16.0,-100.00,WSW,251,21.0,41.0,35,0.00,,,0.00,836.000000,,2013-04-07 17:54:00,
2013-04-07 12:02:00,42.0,16.0,-100.00,WSW,251,21.0,41.0,35,0.00,,,0.00,836.000000,,2013-04-07 18:02:00,
2013-04-07 12:13:00,42.0,16.0,-100.00,WSW,251,21.0,41.0,35,0.00,,,0.00,836.000000,,2013-04-07 18:13:00,
2013-04-07 12:23:00,42.0,16.0,-100.00,WSW,251,21.0,41.0,35,0.00,,,0.00,836.000000,,2013-04-07 18:23:00,
2013-04-07 12:33:00,42.0,16.0,-100.00,WSW,251,21.0,41.0,35,0.00,,,0.00,836.000000,,2013-04-07 18:33:00,
2013-04-07 12:53:00,45.0,18.0,-100.00,West,267,16.0,32.0,33,0.00,,,0.00,891.000000,,2013-04-07 18:53:00,
2013-04-07 13:03:00,45.0,18.0,-100.00,West,267,16.0,32.0,33,0.00,,,0.00,891.000000,,2013-04-07 19:03:00,
2013-04-07 13:12:00,45.0,18.0,-100.00,West,267,16.0,32.0,33,0.00,,,0.00,891.000000,,2013-04-07 19:12:00,
2013-04-07 13:22:00,45.0,18.0,-100.00,West,267,16.0,32.0,33,0.00,,,0.00,891.000000,,2013-04-07 19:22:00,
2013-04-07 13:32:00,45.0,18.0,-100.00,West,267,16.0,32.0,33,0.00,,,0.00,891.000000,,2013-04-07 19:32:00,
2013-04-07 13:55:00,45.0,22.0,-100.00,WSW,237,21.0,44.0,39,0.00,,,0.00,1018.000000,,2013-04-07 19:55:00,
2013-04-07 14:03:00,45.0,22.0,-100.00,WSW,237,21.0,44.0,39,0.00,,,0.00,1018.000000,,2013-04-07 20:03:00,
2013-04-07 14:13:00,45.0,22.0,-100.00,WSW,237,21.0,44.0,39,0.00,,,0.00,1018.000000,,2013-04-07 20:13:00,
2013-04-07 14:22:00,45.0,22.0,-100.00,WSW,237,21.0,44.0,39,0.00,,,0.00,1018.000000,,2013-04-07 20:22:00,
2013-04-07 14:32:00,45.0,22.0,-100.00,WSW,237,21.0,44.0,39,0.00,,,0.00,1018.000000,,2013-04-07 20:32:00,
2013-04-07 14:34:00,47.0,18.0,-100.00,WSW,257,22.0,48.0,31,0.00,,,0.00,965.000000,,2013-04-07 20:34:00,
2013-04-07 14:54:00,47.0,18.0,-100.00,WSW,257,22.0,48.0,31,0.00,,,0.00,965.000000,,2013-04-07 20:54:00,
2013-04-07 15:03:00,47.0,18.0,-100.00,WSW,257,22.0,48.0,31,0.00,,,0.00,965.000000,,2013-04-07 21:03:00,
2013-04-07 15:13:00,47.0,18.0,-100.00,WSW,257,22.0,48.0,31,0.00,,,0.00,965.000000,,2013-04-07 21:13:00,
2013-04-07 15:22:00,47.0,18.0,-100.00,WSW,257,22.0,48.0,31,0.00,,,0.00,965.000000,,2013-04-07 21:22:00,
2013-04-07 15:34:00,47.0,19.0,-100.00,WSW,246,24.0,42.0,32,0.00,,,0.00,835.000000,,2013-04-07 21:34:00,
2013-04-07 15:55:00,47.0,19.0,-100.00,WSW,246,24.0,42.0,32,0.00,,,0.00,835.000000,,2013-04-07 21:55:00,
2013-04-07 16:04:00,47.0,19.0,-100.00,WSW,246,24.0,42.0,32,0.00,,,0.00,835.000000,,2013-04-07 22:04:00,
2013-04-07 16:14:00,47.0,19.0,-100.00,WSW,246,24.0,42.0,32,0.00,,,0.00,835.000000,,2013-04-07 22:14:00,
2013-04-07 16:23:00,47.0,19.0,-100.00,WSW,246,24.0,42.0,32,0.00,,,0.00,835.000000,,2013-04-07 22:23:00,
2013-04-07 16:53:00,47.0,17.0,-100.00,WSW,246,23.0,50.0,30,0.00,,,0.00,686.000000,,2013-04-07 22:53:00,
2013-04-07 17:03:00,47.0,17.0,-100.00,WSW,246,23.0,50.0,30,0.00,,,0.00,686.000000,,2013-04-07 23:03:00,
2013-04-07 17:13:00,47.0,17.0,-100.00,WSW,246,23.0,50.0,30,0.00,,,0.00,686.000000,,2013-04-07 23:13:00,
2013-04-07 17:22:00,47.0,17.0,-100.00,WSW,246,23.0,50.0,30,0.00,,,0.00,686.000000,,2013-04-07 23:22:00,
2013-04-07 17:32:00,47.0,17.0,-100.00,WSW,246,23.0,50.0,30,0.00,,,0.00,686.000000,,2013-04-07 23:32:00,
2013-04-07 17:53:00,47.0,16.0,-100.00,West,260,22.0,42.0,29,0.00,,,0.00,482.000000,,2013-04-07 23:53:00,
2013-04-07 18:02:00,47.0,16.0,-100.00,West,260,22.0,42.0,29,0.00,,,0.00,482.000000,,2013-04-08 00:02:00,
2013-04-07 18:12:00,47.0,16.0,-100.00,West,260,22.0,42.0,29,0.00,,,0.00,482.000000,,2013-04-08 00:12:00,
2013-04-07 18:22:00,47.0,16.0,-100.00,West,260,22.0,42.0,29,0.00,,,0.00,482.000000,,2013-04-08 00:22:00,
2013-04-07 18:32:00,47.0,16.0,-100.00,West,260,22.0,42.0,29,0.00,,,0.00,482.000000,,2013-04-08 00:32:00,
2013-04-07 18:53:00,40.0,20.0,-100.00,SW,222,26.0,45.0,45,0.00,,,0.00,176.000000,,2013-04-08 00:53:00,
2013-04-07 19:03:00,40.0,20.0,-100.00,SW,222,26.0,45.0,45,0.00,,,0.00,176.000000,,2013-04-08 01:03:00,
2013-04-07 19:12:00,40.0,20.0,-100.00,SW,222,26.0,45.0,45,0.00,,,0.00,176.000000,,2013-04-08 01:12:00,
2013-04-07 19:22:00,40.0,20.0,-100.00,SW,222,26.0,45.0,45,0.00,,,0.00,176.000000,,2013-04-08 01:22:00,
2013-04-07 19:33:00,40.0,20.0,-100.00,SW,222,26.0,45.0,45,0.00,,,0.00,176.000000,,2013-04-08 01:33:00,
2013-04-07 19:55:00,39.0,19.0,-100.00,WSW,238,18.0,43.0,45,0.00,,,0.00,37.000000,,2013-04-08 01:55:00,
2013-04-07 20:03:00,39.0,19.0,-100.00,WSW,238,18.0,43.0,45,0.00,,,0.00,37.000000,,2013-04-08 02:03:00,
2013-04-07 20:12:00,39.0,19.0,-100.00,WSW,238,18.0,43.0,45,0.00,,,0.00,37.000000,,2013-04-08 02:12:00,
2013-04-07 20:22:00,39.0,19.0,-100.00,WSW,238,18.0,43.0,45,0.00,,,0.00,37.000000,,2013-04-08 02:22:00,
2013-04-07 20:33:00,39.0,19.0,-100.00,WSW,238,18.0,43.0,45,0.00,,,0.00,37.000000,,2013-04-08 02:33:00,
2013-04-07 21:08:00,39.0,21.0,-100.00,SSW,211,24.0,43.0,49,0.00,,,0.00,1.000000,,2013-04-08 03:08:00,
2013-04-07 21:15:00,39.0,21.0,-100.00,SSW,211,24.0,43.0,49,0.00,,,0.00,1.000000,,2013-04-08 03:15:00,
2013-04-07 21:24:00,39.0,21.0,-100.00,SSW,211,24.0,43.0,49,0.00,,,0.00,1.000000,,2013-04-08 03:24:00,
2013-04-07 21:33:00,39.0,21.0,-100.00,SSW,211,24.0,43.0,49,0.00,,,0.00,1.000000,,2013-04-08 03:33:00,
2013-04-07 22:03:00,40.0,20.0,-100.00,SSW,210,21.0,35.0,45,0.00,,,0.00,0.000000,,2013-04-08 04:03:00,
2013-04-07 22:12:00,40.0,20.0,-100.00,SSW,210,21.0,35.0,45,0.00,,,0.00,0.000000,,2013-04-08 04:12:00,
2013-04-07 22:23:00,40.0,20.0,-100.00,SSW,210,21.0,35.0,45,0.00,,,0.00,0.000000,,2013-04-08 04:23:00,
2013-04-07 22:33:00,40.0,20.0,-100.00,SSW,210,21.0,35.0,45,0.00,,,0.00,0.000000,,2013-04-08 04:33:00,
2013-04-07 22:53:00,40.0,16.0,-100.00,WSW,245,14.0,32.0,38,0.00,,,0.00,0.000000,,2013-04-08 04:53:00,
2013-04-07 23:02:00,40.0,16.0,-100.00,WSW,245,14.0,32.0,38,0.00,,,0.00,0.000000,,2013-04-08 05:02:00,
2013-04-07 23:12:00,40.0,16.0,-100.00,WSW,245,14.0,32.0,38,0.00,,,0.00,0.000000,,2013-04-08 05:12:00,
2013-04-07 23:22:00,40.0,16.0,-100.00,WSW,245,14.0,32.0,38,0.00,,,0.00,0.000000,,2013-04-08 05:22:00,
2013-04-07 23:32:00,40.0,16.0,-100.00,WSW,245,14.0,32.0,38,0.00,,,0.00,0.000000,,2013-04-08 05:32:00,
2013-04-07 23:53:00,38.0,15.0,-100.00,West,264,9.0,25.0,39,0.00,,,0.00,0.000000,,2013-04-08 05:53:00,